This is the latest recevied weather packets stored in our database for station/object K1JO. If no packets are shown the sender has not sent any weather packets the latest 10 day(s).
| Time | Temp. | Humidity | Pressure | Rain* | Wind** | Luminosity | Snow |
|---|---|---|---|---|---|---|---|
| 1777294407 | 14.44° C | 53% | 1021.4 hPa | 0 mm | - | 459 W/m² | - |
| 1777294105 | 15° C | 53% | 1021.3 hPa | 0 mm | - | 442 W/m² | - |
| 1777293802 | 13.89° C | 54% | 1021.4 hPa | 0 mm | - | 425 W/m² | - |
| 1777293496 | 13.89° C | 55% | 1021.4 hPa | 0 mm | - | 409 W/m² | - |
| 1777293192 | 13.89° C | 57% | 1021.4 hPa | 0 mm | - | 386 W/m² | - |
| 1777292892 | 13.89° C | 56% | 1021.3 hPa | 0 mm | - | 378 W/m² | - |
| 1777292588 | 13.89° C | 60% | 1021.3 hPa | 0 mm | - | 373 W/m² | - |
| 1777292284 | 13.33° C | 57% | 1021.3 hPa | 0 mm | - | 330 W/m² | - |
| 1777290767 | 5° C | 98% | 1021.3 hPa | 0 mm | - | 70 W/m² | - |
| 1777290464 | 5° C | 98% | 1021.1 hPa | 0 mm | - | 70 W/m² | - |
| 1777290159 | 5° C | 98% | 1021.2 hPa | 0 mm | - | 70 W/m² | - |
| 1777289857 | 5° C | 98% | 1021 hPa | 0 mm | - | 70 W/m² | - |
| 1777289552 | 5° C | 98% | 1021.1 hPa | 0 mm | - | 70 W/m² | - |
| 1777289248 | 5° C | 98% | 1020.9 hPa | 0 mm | - | 70 W/m² | - |
| 1777288945 | 5° C | 98% | 1021.2 hPa | 0 mm | - | 70 W/m² | - |
| 1777288642 | 5° C | 98% | 1021.3 hPa | 0 mm | - | 70 W/m² | - |
| 1777288339 | 5° C | 98% | 1021 hPa | 0 mm | - | 70 W/m² | - |
| 1777288035 | 5° C | 98% | 1021.1 hPa | 0 mm | - | 70 W/m² | - |
| 1777287732 | 5° C | 98% | 1021.1 hPa | 0 mm | - | 70 W/m² | - |
| 1777287429 | 5° C | 98% | 1021.1 hPa | 0 mm | - | 70 W/m² | - |
| 1777287124 | 5° C | 99% | 1021 hPa | 0 mm | - | 68 W/m² | - |
| 1777286821 | 4.44° C | 99% | 1020.8 hPa | 0 mm | - | 61 W/m² | - |
| 1777286519 | 2.78° C | 99% | 1020.8 hPa | 0 mm | - | 34 W/m² | - |
| 1777286216 | 0.56° C | 99% | 1020.8 hPa | 0 mm | - | 31 W/m² | - |
| 1777285913 | 0.56° C | 99% | 1020.7 hPa | 0 mm | - | 31 W/m² | - |
* Rain latest hour (hover to see other rain measurements)
** Current wind speed in m/s (hover to see current wind gust speed)